Time;durP1;ratioP1;P1;durP2;ratioP2;P2;SDS_P1;SDS_P2;PMS_P1;PMS_P2;Temp;Humidity;BMP_temperature;BMP_pressure;BME280_temperature;BME280_humidity;BME280_pressure;Samples;Min_cycle;Max_cycle;Signal;HPM_P1;HPM_P2
2021/12/02 06:56:31;;;;;;;3.45;1.08;;;;;;;;;;5100417;27;20128;-73
2021/12/02 06:58:57;;;;;;;5.43;1.17;;;;;;;;;;5104946;28;20055;-69
2021/12/02 07:01:23;;;;;;;6.10;1.17;;;;;;;;;;5105844;28;20024;-71
2021/12/02 07:03:54;;;;;;;1.98;0.88;;;;;;;;;;5109749;28;20494;-72
2021/12/02 07:06:20;;;;;;;;;;;;;;;;;;5113603;28;20100;-70
2021/12/02 07:08:46;;;;;;;3.83;1.00;;;;;;;;;;5116780;28;19947;-68
2021/12/02 07:11:12;;;;;;;2.70;0.80;;;;;;;;;;5116222;28;20028;-71
2021/12/02 07:13:40;;;;;;;4.57;1.00;;;;;;;;;;5116987;28;20024;-70
2021/12/02 11:21:42;;;;;;;14.02;2.90;;;;;;;;;;5113738;27;20121;-75
2021/12/02 11:24:09;;;;;;;16.98;3.17;;;;;;;;;;5114718;28;20542;-75
2021/12/02 11:26:35;;;;;;;18.25;3.78;;;;;;;;;;5120798;28;20032;-75
2021/12/02 11:29:01;;;;;;;13.75;2.40;;;;;;;;;;5120606;27;20038;-76
2021/12/02 11:31:28;;;;;;;17.17;3.08;;;;;;;;;;5128311;27;20027;-74
2021/12/02 11:33:54;;;;;;;11.98;2.55;;;;;;;;;;5134623;27;20539;-74
2021/12/02 11:36:28;;;;;;;11.07;2.47;;;;;;;;;;5129845;27;20453;-74
2021/12/02 11:38:59;;;;;;;15.95;3.17;;;;;;;;;;5130489;27;20529;-74
2021/12/02 11:41:26;;;;;;;13.85;2.72;;;;;;;;;;5132742;27;20447;-74
2021/12/02 11:43:53;;;;;;;14.65;2.47;;;;;;;;;;5129286;27;20044;-73
2021/12/02 11:46:20;;;;;;;10.93;2.80;;;;;;;;;;5134349;27;20031;-76
2021/12/02 11:48:46;;;;;;;12.27;3.53;;;;;;;;;;5131773;27;20073;-73
2021/12/02 11:51:12;;;;;;;20.73;6.55;;;;;;;;;;5116830;27;20022;-74
2021/12/02 11:53:38;;;;;;;20.55;6.57;;;;;;;;;;5129715;27;20020;-74
2021/12/02 11:56:15;;;;;;;14.43;4.55;;;;;;;;;;5133702;27;20096;-75
2021/12/02 11:58:42;;;;;;;15.77;3.60;;;;;;;;;;5133375;27;20034;-74
2021/12/02 12:01:13;;;;;;;19.90;6.05;;;;;;;;;;5136384;27;20031;-74
2021/12/02 12:03:43;;;;;;;36.55;15.85;;;;;;;;;;5132371;27;20096;-73
2021/12/02 12:06:13;;;;;;;22.40;7.45;;;;;;;;;;5121422;27;20027;-73
2021/12/02 12:08:42;;;;;;;17.63;3.70;;;;;;;;;;5123841;27;20019;-73
2021/12/02 12:11:26;;;;;;;10.68;2.92;;;;;;;;;;5128444;27;20030;-72
2021/12/02 12:13:58;;;;;;;9.77;2.50;;;;;;;;;;5133277;27;20074;-75
2021/12/02 12:16:26;;;;;;;12.35;2.95;;;;;;;;;;5134902;27;20450;-73
2021/12/02 12:18:53;;;;;;;16.20;2.97;;;;;;;;;;5132693;27;20529;-73
2021/12/02 12:21:34;;;;;;;15.32;2.80;;;;;;;;;;5130841;27;20248;-74
2021/12/02 12:24:01;;;;;;;10.88;2.47;;;;;;;;;;5128534;27;20031;-72
2021/12/02 12:26:30;;;;;;;11.63;3.00;;;;;;;;;;5130139;27;20024;-72
2021/12/02 12:31:32;;;;;;;18.33;4.53;;;;;;;;;;5128679;27;20042;-75
2021/12/02 12:34:00;;;;;;;11.57;3.50;;;;;;;;;;5120123;27;20028;-75
2021/12/02 12:36:44;;;;;;;18.77;4.55;;;;;;;;;;5116260;27;20038;-72
2021/12/02 12:39:21;;;;;;;12.77;4.35;;;;;;;;;;5111187;27;20038;-72
2021/12/02 12:42:07;;;;;;;16.95;3.20;;;;;;;;;;5112577;27;20032;-72
2021/12/02 12:44:52;;;;;;;17.92;4.15;;;;;;;;;;5118679;27;20031;-74
2021/12/02 12:47:19;;;;;;;16.88;4.05;;;;;;;;;;5114373;27;20535;-74
2021/12/02 12:49:46;;;;;;;21.15;3.47;;;;;;;;;;5118261;27;20019;-71
2021/12/02 12:52:21;;;;;;;24.85;4.22;;;;;;;;;;5118685;27;20395;-71
2021/12/02 12:55:06;;;;;;;18.30;3.17;;;;;;;;;;5120610;27;20432;-72
2021/12/02 12:57:32;;;;;;;15.43;3.30;;;;;;;;;;5117201;27;20032;-73
2021/12/02 12:59:58;;;;;;;17.15;3.13;;;;;;;;;;5117141;27;20406;-72
2021/12/02 13:02:25;;;;;;;13.88;3.13;;;;;;;;;;5119577;27;20030;-74
2021/12/02 13:04:54;;;;;;;15.00;3.25;;;;;;;;;;5110303;27;20036;-72
2021/12/02 13:07:21;;;;;;;29.15;8.75;;;;;;;;;;5116794;27;20065;-72
2021/12/02 13:09:59;;;;;;;11.48;3.75;;;;;;;;;;5120119;27;20498;-72
2021/12/02 13:12:47;;;;;;;14.32;3.58;;;;;;;;;;5115989;27;20498;-72
2021/12/02 13:15:16;;;;;;;17.58;3.08;;;;;;;;;;5112670;27;20079;-72
2021/12/02 13:17:43;;;;;;;8.75;2.40;;;;;;;;;;5110886;27;20023;-73
2021/12/02 13:20:28;;;;;;;15.73;3.05;;;;;;;;;;5090756;28;20516;-73
2021/12/02 13:23:13;;;;;;;15.57;6.10;;;;;;;;;;5113739;27;20027;-72
2021/12/02 13:26:05;;;;;;;25.92;12.65;;;;;;;;;;5114483;27;20024;-71
2021/12/02 13:28:35;;;;;;;16.98;7.82;;;;;;;;;;5110434;27;20173;-73
2021/12/02 13:31:04;;;;;;;23.40;5.30;;;;;;;;;;5117612;27;20027;-73
2021/12/02 13:33:36;;;;;;;15.07;5.65;;;;;;;;;;5114335;27;20066;-73
2021/12/02 13:36:02;;;;;;;14.00;5.50;;;;;;;;;;5119833;27;20059;-72
2021/12/02 13:38:29;;;;;;;11.13;6.25;;;;;;;;;;5112112;27;20383;-72
2021/12/02 13:40:55;;;;;;;21.08;8.95;;;;;;;;;;5111696;27;20089;-71
2021/12/02 13:43:21;;;;;;;19.40;6.95;;;;;;;;;;5117908;27;20431;-72
2021/12/02 13:45:47;;;;;;;14.18;7.03;;;;;;;;;;5115554;27;20024;-71
2021/12/02 13:48:19;;;;;;;14.98;4.75;;;;;;;;;;5117456;27;20023;-71
2021/12/02 13:50:51;;;;;;;13.82;3.65;;;;;;;;;;5109908;27;20043;-72
2021/12/02 13:53:17;;;;;;;9.95;3.50;;;;;;;;;;5115525;27;20107;-72
2021/12/02 13:55:48;;;;;;;7.93;3.15;;;;;;;;;;5095588;28;20567;-72
2021/12/02 14:00:43;;;;;;;10.38;2.80;;;;;;;;;;5113537;27;20035;-73
2021/12/02 14:03:11;;;;;;;12.30;3.00;;;;;;;;;;5108566;27;20031;-73
2021/12/02 14:05:39;;;;;;;9.88;3.90;;;;;;;;;;5113338;27;20106;-73
2021/12/02 14:08:25;;;;;;;9.48;2.50;;;;;;;;;;5116955;27;20038;-73
2021/12/02 14:10:52;;;;;;;10.45;2.83;;;;;;;;;;5114705;27;20016;-72
2021/12/02 14:13:20;;;;;;;10.50;3.17;;;;;;;;;;5115267;27;20034;-72
2021/12/02 14:15:47;;;;;;;10.25;2.75;;;;;;;;;;5115716;27;20027;-71
2021/12/02 14:18:19;;;;;;;8.77;2.63;;;;;;;;;;5116251;27;20046;-70
2021/12/02 14:20:45;;;;;;;10.52;2.90;;;;;;;;;;5109018;27;20575;-71
2021/12/02 14:23:13;;;;;;;11.25;4.50;;;;;;;;;;5116480;27;20020;-71
2021/12/02 14:25:40;;;;;;;16.48;4.63;;;;;;;;;;5114508;27;20364;-74
2021/12/02 14:28:07;;;;;;;8.82;3.25;;;;;;;;;;5119249;27;20019;-74
2021/12/02 14:30:38;;;;;;;12.80;3.13;;;;;;;;;;5113084;27;20023;-75
2021/12/02 14:33:08;;;;;;;10.82;3.55;;;;;;;;;;5112295;27;20024;-75
2021/12/02 14:35:53;;;;;;;10.80;2.90;;;;;;;;;;5112994;27;20478;-74
2021/12/02 14:38:23;;;;;;;10.90;3.08;;;;;;;;;;5105115;27;20024;-75
2021/12/02 14:40:53;;;;;;;;;;;;;;;;;;5112164;27;20067;-75
2021/12/02 14:43:27;;;;;;;10.63;3.25;;;;;;;;;;5118230;27;19911;-75
2021/12/02 14:46:10;;;;;;;7.57;2.65;;;;;;;;;;5116614;27;20027;-75
2021/12/02 14:48:36;;;;;;;12.45;2.60;;;;;;;;;;5114049;27;20028;-75
2021/12/02 14:51:08;;;;;;;13.60;4.30;;;;;;;;;;5119551;27;20031;-74
2021/12/02 14:53:38;;;;;;;20.05;10.30;;;;;;;;;;5118361;27;20027;-75
2021/12/02 14:56:19;;;;;;;18.15;9.10;;;;;;;;;;5119856;27;20030;-75
2021/12/02 14:59:05;;;;;;;15.02;5.18;;;;;;;;;;5114079;27;20474;-75
2021/12/02 15:01:31;;;;;;;9.65;3.30;;;;;;;;;;5118441;27;20107;-75
2021/12/02 15:03:57;;;;;;;10.15;3.92;;;;;;;;;;5120610;27;20364;-75
2021/12/02 15:06:36;;;;;;;7.40;2.40;;;;;;;;;;5119401;27;20034;-74
2021/12/02 15:09:03;;;;;;;6.53;2.65;;;;;;;;;;5115815;27;20023;-76
2021/12/02 15:11:32;;;;;;;7.70;3.58;;;;;;;;;;5118459;27;20023;-76
2021/12/02 15:13:58;;;;;;;8.40;2.50;;;;;;;;;;5119151;27;20062;-76
2021/12/02 15:16:24;;;;;;;7.70;2.47;;;;;;;;;;5120020;27;20027;-75
2021/12/02 15:18:51;;;;;;;6.10;2.50;;;;;;;;;;5119499;28;20030;-76
2021/12/02 15:21:17;;;;;;;8.02;2.28;;;;;;;;;;5119609;28;20405;-75
2021/12/02 15:23:43;;;;;;;7.80;2.17;;;;;;;;;;5114360;28;20015;-75
2021/12/02 15:26:13;;;;;;;7.93;2.10;;;;;;;;;;5119411;28;20027;-72
2021/12/02 15:28:44;;;;;;;4.10;2.40;;;;;;;;;;5114469;28;20030;-73
2021/12/02 15:31:17;;;;;;;5.70;2.50;;;;;;;;;;5122325;28;20160;-74
2021/12/02 15:33:45;;;;;;;5.32;2.15;;;;;;;;;;5115586;28;20498;-73
2021/12/02 15:36:13;;;;;;;9.15;2.40;;;;;;;;;;5120350;28;20027;-74
2021/12/02 15:38:41;;;;;;;6.10;2.17;;;;;;;;;;5116370;28;20581;-74
2021/12/02 15:41:08;;;;;;;10.32;2.55;;;;;;;;;;5119198;28;20027;-73
2021/12/02 15:43:51;;;;;;;4.68;2.20;;;;;;;;;;5117784;28;20924;-73
2021/12/02 15:46:17;;;;;;;6.78;3.03;;;;;;;;;;5116135;28;20036;-73
2021/12/02 15:48:45;;;;;;;5.38;2.10;;;;;;;;;;5115565;28;20478;-73
2021/12/02 15:51:12;;;;;;;11.05;3.67;;;;;;;;;;5108816;28;20042;-75
2021/12/02 15:53:38;;;;;;;24.00;10.95;;;;;;;;;;5116071;28;20024;-74
2021/12/02 15:56:04;;;;;;;30.25;17.38;;;;;;;;;;5115183;28;20551;-75
2021/12/02 15:58:31;;;;;;;29.85;13.70;;;;;;;;;;5117629;28;20027;-70
2021/12/02 16:01:00;;;;;;;26.10;14.45;;;;;;;;;;5115699;28;20164;-71
2021/12/02 16:03:33;;;;;;;32.97;18.37;;;;;;;;;;5108244;28;20030;-72
2021/12/02 16:11:26;;;;;;;94.00;42.75;;;;;;;;;;5114622;27;20028;-72
2021/12/02 16:13:53;;;;;;;115.90;53.22;;;;;;;;;;5118277;27;20027;-72
2021/12/02 16:16:19;;;;;;;100.78;49.55;;;;;;;;;;5124620;27;20496;-72
2021/12/02 16:18:45;;;;;;;100.72;51.15;;;;;;;;;;5121252;27;20026;-72
2021/12/02 16:21:12;;;;;;;59.78;27.65;;;;;;;;;;5112379;27;20046;-72
2021/12/02 16:23:39;;;;;;;33.97;14.60;;;;;;;;;;5119415;27;20034;-73
2021/12/02 16:26:06;;;;;;;22.30;11.48;;;;;;;;;;5122646;27;20034;-71
2021/12/02 16:28:32;;;;;;;15.90;6.10;;;;;;;;;;5121126;27;20459;-71
2021/12/02 16:30:58;;;;;;;17.95;8.43;;;;;;;;;;5124286;27;20403;-71
2021/12/02 16:33:25;;;;;;;37.88;19.27;;;;;;;;;;5117651;27;20026;-71
2021/12/02 16:35:51;;;;;;;50.13;23.95;;;;;;;;;;5120022;27;20494;-71
2021/12/02 16:38:17;;;;;;;105.30;53.30;;;;;;;;;;5119651;27;20032;-71
2021/12/02 16:40:45;;;;;;;314.80;144.75;;;;;;;;;;5115837;27;20650;-72
2021/12/02 16:43:11;;;;;;;148.48;71.40;;;;;;;;;;5126017;27;20486;-72
2021/12/02 16:45:40;;;;;;;115.43;60.60;;;;;;;;;;5119772;27;20063;-71
2021/12/02 16:48:06;;;;;;;110.13;60.67;;;;;;;;;;5121999;27;20035;-72
2021/12/02 16:50:32;;;;;;;64.45;35.80;;;;;;;;;;5120126;27;20027;-71
2021/12/02 16:52:59;;;;;;;66.78;35.13;;;;;;;;;;5103854;27;20487;-73
2021/12/02 16:55:25;;;;;;;40.65;21.52;;;;;;;;;;5103593;27;20027;-72
2021/12/02 16:57:52;;;;;;;30.73;15.88;;;;;;;;;;5102277;27;20035;-73
2021/12/02 17:00:20;;;;;;;17.25;8.50;;;;;;;;;;5106113;27;20044;-72
2021/12/02 17:02:46;;;;;;;18.63;7.18;;;;;;;;;;5107362;27;20019;-72
2021/12/02 17:05:12;;;;;;;17.20;5.35;;;;;;;;;;5102712;27;20023;-72
2021/12/02 17:07:39;;;;;;;8.75;3.10;;;;;;;;;;5114752;27;20015;-72
2021/12/02 17:10:06;;;;;;;7.63;3.38;;;;;;;;;;5104317;27;20450;-71
2021/12/02 17:12:32;;;;;;;6.45;3.03;;;;;;;;;;5118746;27;20427;-71
2021/12/02 17:14:59;;;;;;;10.50;3.40;;;;;;;;;;5120992;27;20034;-72
2021/12/02 17:17:25;;;;;;;6.53;2.60;;;;;;;;;;5119024;27;20535;-71
2021/12/02 17:19:51;;;;;;;8.95;2.70;;;;;;;;;;5117340;27;20038;-71
2021/12/02 17:22:19;;;;;;;7.00;2.45;;;;;;;;;;5118173;27;20146;-71
2021/12/02 17:24:45;;;;;;;6.78;2.58;;;;;;;;;;5122281;27;20026;-71
2021/12/02 17:27:12;;;;;;;9.75;3.00;;;;;;;;;;5118630;27;26445;-71
2021/12/02 17:29:39;;;;;;;7.47;2.35;;;;;;;;;;5124592;27;20028;-70
2021/12/02 17:32:07;;;;;;;8.15;2.33;;;;;;;;;;5118758;27;20027;-70
2021/12/02 17:34:33;;;;;;;8.70;2.95;;;;;;;;;;5117196;27;20031;-71
2021/12/02 17:37:01;;;;;;;8.75;2.70;;;;;;;;;;5117723;27;20077;-71
2021/12/02 17:39:27;;;;;;;8.63;2.88;;;;;;;;;;5115601;27;20047;-71
2021/12/02 17:41:55;;;;;;;10.23;2.50;;;;;;;;;;5113795;27;20043;-72
2021/12/02 17:44:24;;;;;;;9.23;2.92;;;;;;;;;;5118819;27;20020;-71
2021/12/02 17:46:50;;;;;;;8.32;3.05;;;;;;;;;;5116385;27;20031;-76
2021/12/02 17:49:17;;;;;;;7.20;3.05;;;;;;;;;;5108114;27;20023;-76
2021/12/02 17:51:43;;;;;;;7.70;2.67;;;;;;;;;;5118086;27;20092;-75
2021/12/02 17:54:09;;;;;;;8.07;2.63;;;;;;;;;;5118540;27;20016;-75
2021/12/02 17:56:35;;;;;;;7.88;2.90;;;;;;;;;;5115327;27;20050;-75
2021/12/02 17:59:02;;;;;;;9.73;2.50;;;;;;;;;;5106161;27;20020;-72
2021/12/02 18:01:28;;;;;;;13.85;3.22;;;;;;;;;;5109313;27;20119;-75
2021/12/02 18:03:54;;;;;;;9.45;2.80;;;;;;;;;;5118944;27;20051;-75
2021/12/02 18:06:21;;;;;;;69.93;37.50;;;;;;;;;;5110936;27;20055;-76
2021/12/02 18:08:47;;;;;;;152.38;87.30;;;;;;;;;;5119787;27;20027;-74
2021/12/02 18:11:13;;;;;;;74.25;39.38;;;;;;;;;;5121786;27;20496;-74
2021/12/02 18:13:40;;;;;;;96.43;55.20;;;;;;;;;;5118882;27;20051;-73
2021/12/02 18:16:06;;;;;;;34.15;19.83;;;;;;;;;;5090639;27;20028;-73
2021/12/02 18:18:32;;;;;;;28.55;16.27;;;;;;;;;;5097793;27;20444;-75
2021/12/02 18:20:59;;;;;;;20.95;9.45;;;;;;;;;;5105088;27;20045;-73
2021/12/02 18:23:27;;;;;;;13.10;5.28;;;;;;;;;;5106587;27;20417;-74
2021/12/02 18:25:54;;;;;;;13.32;5.00;;;;;;;;;;5099731;27;20043;-75
2021/12/02 18:28:21;;;;;;;14.23;4.10;;;;;;;;;;5106438;27;20024;-74
2021/12/02 18:30:47;;;;;;;6.43;3.28;;;;;;;;;;5103239;27;20031;-76
2021/12/02 18:33:13;;;;;;;9.52;3.30;;;;;;;;;;5113363;27;20073;-75
2021/12/02 18:35:39;;;;;;;17.30;6.63;;;;;;;;;;5121055;27;20038;-76
2021/12/02 18:38:05;;;;;;;60.90;29.33;;;;;;;;;;5128672;27;20023;-75
2021/12/02 18:40:31;;;;;;;56.80;26.92;;;;;;;;;;5119965;27;20040;-81
2021/12/02 18:42:58;;;;;;;23.02;10.25;;;;;;;;;;5112161;27;20023;-72
2021/12/02 18:45:24;;;;;;;18.95;7.68;;;;;;;;;;5113422;27;20036;-70
2021/12/02 18:47:51;;;;;;;15.18;6.30;;;;;;;;;;5104610;27;20069;-74
2021/12/02 18:50:17;;;;;;;9.02;4.10;;;;;;;;;;5097411;27;20027;-72
2021/12/02 18:52:44;;;;;;;13.48;3.83;;;;;;;;;;5099781;27;20042;-74
2021/12/02 18:55:10;;;;;;;9.20;3.17;;;;;;;;;;5103024;27;20027;-76
2021/12/02 18:57:36;;;;;;;10.38;3.00;;;;;;;;;;5110811;27;20072;-73
2021/12/02 19:00:08;;;;;;;9.13;3.30;;;;;;;;;;5103817;27;20415;-75
2021/12/02 19:02:37;;;;;;;9.77;3.38;;;;;;;;;;5100203;27;20035;-75
2021/12/02 19:07:59;;;;;;;6.93;2.60;;;;;;;;;;5098286;27;20034;-74
2021/12/02 19:26:39;;;;;;;8.05;3.20;;;;;;;;;;5104704;28;20040;-75
2021/12/02 19:29:07;;;;;;;6.63;3.22;;;;;;;;;;5097576;28;20047;-75
2021/12/02 19:31:33;;;;;;;6.80;3.08;;;;;;;;;;5090652;28;20036;-74
2021/12/02 19:34:00;;;;;;;7.72;3.10;;;;;;;;;;5099872;28;20406;-74
2021/12/02 19:36:26;;;;;;;5.72;3.15;;;;;;;;;;5094480;28;20025;-73
2021/12/02 19:38:52;;;;;;;12.38;3.17;;;;;;;;;;5098474;28;20501;-73
2021/12/02 19:41:19;;;;;;;10.57;3.33;;;;;;;;;;5101385;28;20391;-73
2021/12/02 19:43:48;;;;;;;9.88;2.95;;;;;;;;;;5117943;27;20165;-73
2021/12/02 19:46:16;;;;;;;6.50;3.03;;;;;;;;;;5124559;27;20035;-71
2021/12/02 19:48:42;;;;;;;7.47;3.00;;;;;;;;;;5117681;27;20027;-73
2021/12/02 19:51:09;;;;;;;43.67;22.02;;;;;;;;;;5113216;27;20073;-71
2021/12/02 19:53:35;;;;;;;339.67;196.93;;;;;;;;;;5117122;27;20023;-71
2021/12/02 19:56:01;;;;;;;115.72;65.95;;;;;;;;;;5117109;27;20016;-68
2021/12/02 19:58:27;;;;;;;202.50;105.88;;;;;;;;;;5111573;27;20473;-73
2021/12/02 20:00:54;;;;;;;119.45;60.53;;;;;;;;;;5115008;27;20080;-72
2021/12/02 20:03:21;;;;;;;71.03;36.70;;;;;;;;;;5111282;27;20023;-74
2021/12/02 20:05:47;;;;;;;109.03;53.97;;;;;;;;;;5113404;27;20442;-72
2021/12/02 20:08:13;;;;;;;35.65;18.08;;;;;;;;;;5110638;27;20030;-73
2021/12/02 20:10:40;;;;;;;27.85;15.05;;;;;;;;;;5107512;27;20558;-73
2021/12/02 20:13:07;;;;;;;19.65;10.07;;;;;;;;;;5111017;27;20028;-73
2021/12/02 20:15:48;;;;;;;14.55;7.93;;;;;;;;;;5111607;27;20087;-74
2021/12/02 20:18:18;;;;;;;10.85;5.40;;;;;;;;;;5105893;27;20100;-72
2021/12/02 20:20:45;;;;;;;11.57;5.47;;;;;;;;;;5109222;27;20487;-74
2021/12/02 20:23:11;;;;;;;11.75;5.60;;;;;;;;;;5111444;27;20031;-75
2021/12/02 20:25:38;;;;;;;11.18;5.00;;;;;;;;;;5118577;27;20165;-73
2021/12/02 20:28:04;;;;;;;15.40;5.53;;;;;;;;;;5113442;27;20414;-75
2021/12/02 20:30:35;;;;;;;10.13;5.00;;;;;;;;;;5105265;27;20448;-74
2021/12/02 20:33:02;;;;;;;11.38;4.45;;;;;;;;;;5113177;27;20027;-74
2021/12/02 20:35:30;;;;;;;14.90;4.18;;;;;;;;;;5116430;27;20038;-73
2021/12/02 20:37:57;;;;;;;8.27;4.22;;;;;;;;;;5118252;27;20084;-74
2021/12/02 20:40:23;;;;;;;10.98;3.85;;;;;;;;;;5118923;27;20031;-73
2021/12/02 20:42:50;;;;;;;11.68;4.05;;;;;;;;;;5113699;27;20031;-74
2021/12/02 20:45:18;;;;;;;10.63;3.70;;;;;;;;;;5114994;27;20440;-74
2021/12/02 20:47:57;;;;;;;7.90;4.38;;;;;;;;;;5123242;27;20031;-75
2021/12/02 20:50:25;;;;;;;13.57;4.03;;;;;;;;;;5109704;27;20027;-74
2021/12/02 20:52:52;;;;;;;7.03;3.88;;;;;;;;;;5107326;27;20086;-73
2021/12/02 20:55:20;;;;;;;10.32;4.00;;;;;;;;;;5098842;27;20027;-75
2021/12/02 20:57:46;;;;;;;50.40;26.85;;;;;;;;;;5105543;27;20019;-73
2021/12/02 21:00:16;;;;;;;156.80;84.18;;;;;;;;;;5116157;27;20490;-74
2021/12/02 21:02:42;;;;;;;323.27;152.10;;;;;;;;;;5119178;27;20027;-73
2021/12/02 21:05:09;;;;;;;182.88;89.75;;;;;;;;;;5111934;27;20482;-72
2021/12/02 21:07:35;;;;;;;174.02;70.35;;;;;;;;;;5102723;27;20031;-74
2021/12/02 21:10:04;;;;;;;146.77;63.47;;;;;;;;;;5109069;27;20011;-74
2021/12/02 21:12:32;;;;;;;147.63;64.97;;;;;;;;;;5107214;27;20036;-74
2021/12/02 21:14:59;;;;;;;95.03;46.80;;;;;;;;;;5117017;27;20493;-75
2021/12/02 21:17:25;;;;;;;41.83;18.77;;;;;;;;;;5123658;27;20031;-75
2021/12/02 21:19:51;;;;;;;88.57;40.83;;;;;;;;;;5119741;27;20039;-76
2021/12/02 21:22:18;;;;;;;33.15;14.50;;;;;;;;;;5113903;27;20046;-74
2021/12/02 21:24:45;;;;;;;36.80;15.60;;;;;;;;;;5110628;27;20019;-76
2021/12/02 21:27:14;;;;;;;17.70;7.85;;;;;;;;;;5113958;27;20028;-74
2021/12/02 21:29:41;;;;;;;13.15;4.80;;;;;;;;;;5120746;27;20058;-74
2021/12/02 21:32:07;;;;;;;12.32;4.28;;;;;;;;;;5115801;27;20112;-74
2021/12/02 21:34:35;;;;;;;9.82;3.83;;;;;;;;;;5116870;27;20047;-76
2021/12/02 21:37:04;;;;;;;30.02;12.23;;;;;;;;;;5116388;27;20035;-75
2021/12/02 21:39:34;;;;;;;23.97;10.93;;;;;;;;;;5114668;27;20065;-75
2021/12/02 21:42:01;;;;;;;22.65;7.75;;;;;;;;;;5120150;27;20111;-74
2021/12/02 21:44:27;;;;;;;18.42;7.38;;;;;;;;;;5123376;27;20031;-74
2021/12/02 21:46:54;;;;;;;20.88;9.15;;;;;;;;;;5111067;27;20028;-72
2021/12/02 21:49:21;;;;;;;18.90;6.43;;;;;;;;;;5118761;27;20024;-72
2021/12/02 21:51:49;;;;;;;23.15;8.32;;;;;;;;;;5110214;27;20635;-73
2021/12/02 21:54:16;;;;;;;13.32;5.97;;;;;;;;;;5106461;27;20024;-73
2021/12/02 21:56:44;;;;;;;17.33;7.80;;;;;;;;;;5122936;27;20031;-73
2021/12/02 21:59:10;;;;;;;42.65;16.77;;;;;;;;;;5115698;27;20027;-74
2021/12/02 22:01:42;;;;;;;166.73;87.00;;;;;;;;;;5109436;27;20104;-73
2021/12/02 22:04:11;;;;;;;91.35;47.20;;;;;;;;;;5118448;27;20035;-73
2021/12/02 22:06:37;;;;;;;43.88;22.83;;;;;;;;;;5115549;27;20062;-74
2021/12/02 22:09:04;;;;;;;33.67;15.88;;;;;;;;;;5119606;27;20023;-75
2021/12/02 22:11:30;;;;;;;19.77;6.63;;;;;;;;;;5122319;27;20031;-77
2021/12/02 22:13:56;;;;;;;14.52;4.93;;;;;;;;;;5115984;27;20031;-77
2021/12/02 22:16:22;;;;;;;15.68;3.30;;;;;;;;;;5119055;27;20025;-75
2021/12/02 22:18:49;;;;;;;6.18;2.67;;;;;;;;;;5115248;27;20136;-74
2021/12/02 22:21:15;;;;;;;7.43;2.40;;;;;;;;;;5115583;27;20052;-74
2021/12/02 22:23:42;;;;;;;8.85;2.65;;;;;;;;;;5103177;27;20030;-73
2021/12/02 22:26:08;;;;;;;5.30;1.77;;;;;;;;;;5103977;27;20035;-74
2021/12/02 22:28:34;;;;;;;5.15;1.67;;;;;;;;;;5094237;28;20097;-73
2021/12/02 22:31:01;;;;;;;9.82;2.65;;;;;;;;;;5104473;27;20020;-71
2021/12/02 22:33:28;;;;;;;6.53;1.90;;;;;;;;;;5106013;27;20027;-73
2021/12/02 22:35:55;;;;;;;5.97;2.00;;;;;;;;;;5104056;27;20035;-73
2021/12/02 22:38:22;;;;;;;6.28;1.45;;;;;;;;;;5104230;27;20085;-73
2021/12/02 22:40:49;;;;;;;6.30;1.63;;;;;;;;;;5096499;27;20045;-74
2021/12/02 22:43:16;;;;;;;6.47;1.67;;;;;;;;;;5107051;27;20019;-74
2021/12/02 22:45:42;;;;;;;8.98;1.90;;;;;;;;;;5113130;27;20089;-74
2021/12/02 22:48:09;;;;;;;5.70;1.50;;;;;;;;;;5117704;27;20548;-74
2021/12/02 22:50:56;;;;;;;3.70;1.30;;;;;;;;;;5122355;27;20037;-74
2021/12/02 22:53:24;;;;;;;7.07;1.95;;;;;;;;;;5120925;27;20462;-74
2021/12/02 22:55:50;;;;;;;10.23;1.90;;;;;;;;;;5102866;27;20391;-75
